Mount Walker, Washington
Current Conditions -  °F | °C
As of 1:35 AM on Tuesday 21 Oct 2014 (Local Time) from KPWT Reporting Station
Overcast Overcast  
Wind Chill: 54°   Ceiling: 600
Heat Index: 54°   Visibility: 10mi
Dew Point: 54°   Wind: 7mph
Humidity: 100%   Direction: 170°S
Pressure: 29.83"   Gusts: NA
Location:  47.8412°N, 122.841°W
Report Text: KPWT 210835Z AUTO 17006KT 10SM BKN006 BKN012 OVC034 12/12 A2983 RMK AO1
Loading
Personal Weather Stations






























Interactive Weather Map
Tropical Storm Tracking
New forecast layout! Learn more

10-Day Weather Forecast

Advertisements
Track Severe Weather on mobile